sensor_id;sensor_type;location;lat;lon;timestamp;P1;durP1;ratioP1;P2;durP2;ratioP2
66139;SDS011;52945;51.908;8.364;2023-07-02T00:02:36;6.25;;;3.00;;
66139;SDS011;52945;51.908;8.364;2023-07-02T00:05:37;5.57;;;3.50;;
66139;SDS011;52945;51.908;8.364;2023-07-02T00:11:41;5.65;;;2.80;;
66139;SDS011;52945;51.908;8.364;2023-07-02T00:14:43;4.55;;;3.05;;
66139;SDS011;52945;51.908;8.364;2023-07-02T00:20:45;4.40;;;2.88;;
66139;SDS011;52945;51.908;8.364;2023-07-02T00:26:47;4.85;;;2.70;;
66139;SDS011;52945;51.908;8.364;2023-07-02T00:32:48;3.25;;;2.47;;
66139;SDS011;52945;51.908;8.364;2023-07-02T00:38:49;5.03;;;3.17;;
66139;SDS011;52945;51.908;8.364;2023-07-02T00:41:50;5.10;;;3.40;;
66139;SDS011;52945;51.908;8.364;2023-07-02T00:44:50;6.18;;;3.33;;
66139;SDS011;52945;51.908;8.364;2023-07-02T00:47:53;4.72;;;3.05;;
66139;SDS011;52945;51.908;8.364;2023-07-02T00:50:55;5.20;;;3.22;;
66139;SDS011;52945;51.908;8.364;2023-07-02T00:53:57;4.95;;;3.00;;
66139;SDS011;52945;51.908;8.364;2023-07-02T00:56:58;6.00;;;3.40;;
66139;SDS011;52945;51.908;8.364;2023-07-02T01:00:02;4.82;;;3.13;;
66139;SDS011;52945;51.908;8.364;2023-07-02T01:06:03;5.63;;;3.22;;
66139;SDS011;52945;51.908;8.364;2023-07-02T01:09:05;5.90;;;3.60;;
66139;SDS011;52945;51.908;8.364;2023-07-02T01:12:06;6.53;;;3.90;;
66139;SDS011;52945;51.908;8.364;2023-07-02T01:15:08;6.32;;;3.50;;
66139;SDS011;52945;51.908;8.364;2023-07-02T01:21:11;5.40;;;3.75;;
66139;SDS011;52945;51.908;8.364;2023-07-02T01:27:14;6.22;;;3.78;;
66139;SDS011;52945;51.908;8.364;2023-07-02T01:30:15;7.95;;;3.67;;
66139;SDS011;52945;51.908;8.364;2023-07-02T01:36:16;6.55;;;3.95;;
66139;SDS011;52945;51.908;8.364;2023-07-02T01:39:17;7.25;;;4.30;;
66139;SDS011;52945;51.908;8.364;2023-07-02T01:45:18;6.20;;;3.90;;
66139;SDS011;52945;51.908;8.364;2023-07-02T01:48:19;7.22;;;4.20;;
66139;SDS011;52945;51.908;8.364;2023-07-02T01:51:20;6.53;;;4.00;;
66139;SDS011;52945;51.908;8.364;2023-07-02T01:57:22;6.38;;;4.00;;
66139;SDS011;52945;51.908;8.364;2023-07-02T02:03:25;9.32;;;4.28;;
66139;SDS011;52945;51.908;8.364;2023-07-02T02:09:26;8.57;;;4.15;;
66139;SDS011;52945;51.908;8.364;2023-07-02T02:12:28;7.85;;;4.25;;
66139;SDS011;52945;51.908;8.364;2023-07-02T02:15:30;9.63;;;4.68;;
66139;SDS011;52945;51.908;8.364;2023-07-02T02:21:31;7.20;;;4.18;;
66139;SDS011;52945;51.908;8.364;2023-07-02T02:24:32;8.45;;;4.00;;
66139;SDS011;52945;51.908;8.364;2023-07-02T02:30:33;9.50;;;4.40;;
66139;SDS011;52945;51.908;8.364;2023-07-02T02:33:34;10.40;;;4.25;;
66139;SDS011;52945;51.908;8.364;2023-07-02T02:36:35;8.38;;;4.10;;
66139;SDS011;52945;51.908;8.364;2023-07-02T02:42:36;5.97;;;3.65;;
66139;SDS011;52945;51.908;8.364;2023-07-02T02:45:38;7.15;;;4.03;;
66139;SDS011;52945;51.908;8.364;2023-07-02T02:48:39;9.23;;;4.20;;
66139;SDS011;52945;51.908;8.364;2023-07-02T02:51:40;8.10;;;4.20;;
66139;SDS011;52945;51.908;8.364;2023-07-02T02:57:41;7.68;;;3.65;;
66139;SDS011;52945;51.908;8.364;2023-07-02T03:00:43;7.50;;;4.07;;
66139;SDS011;52945;51.908;8.364;2023-07-02T03:03:45;7.15;;;3.70;;
66139;SDS011;52945;51.908;8.364;2023-07-02T03:06:46;8.15;;;4.28;;
66139;SDS011;52945;51.908;8.364;2023-07-02T03:12:47;7.38;;;3.95;;
66139;SDS011;52945;51.908;8.364;2023-07-02T03:18:48;6.88;;;3.95;;
66139;SDS011;52945;51.908;8.364;2023-07-02T03:24:49;10.27;;;4.28;;
66139;SDS011;52945;51.908;8.364;2023-07-02T03:30:50;9.10;;;4.03;;
66139;SDS011;52945;51.908;8.364;2023-07-02T03:36:51;8.57;;;3.60;;
66139;SDS011;52945;51.908;8.364;2023-07-02T03:42:52;8.02;;;3.95;;
66139;SDS011;52945;51.908;8.364;2023-07-02T03:45:53;9.65;;;4.70;;
66139;SDS011;52945;51.908;8.364;2023-07-02T03:51:54;8.70;;;4.00;;
66139;SDS011;52945;51.908;8.364;2023-07-02T03:57:55;11.88;;;4.68;;
66139;SDS011;52945;51.908;8.364;2023-07-02T04:03:56;8.48;;;3.97;;
66139;SDS011;52945;51.908;8.364;2023-07-02T04:09:57;10.23;;;4.47;;
66139;SDS011;52945;51.908;8.364;2023-07-02T04:15:58;9.45;;;4.82;;
66139;SDS011;52945;51.908;8.364;2023-07-02T04:21:59;12.43;;;4.28;;
66139;SDS011;52945;51.908;8.364;2023-07-02T04:25:00;7.53;;;3.80;;
66139;SDS011;52945;51.908;8.364;2023-07-02T04:31:01;8.23;;;3.70;;
66139;SDS011;52945;51.908;8.364;2023-07-02T04:37:03;12.18;;;4.10;;
66139;SDS011;52945;51.908;8.364;2023-07-02T04:40:05;9.90;;;4.13;;
66139;SDS011;52945;51.908;8.364;2023-07-02T04:43:12;9.52;;;3.83;;
66139;SDS011;52945;51.908;8.364;2023-07-02T04:49:13;12.98;;;3.90;;
66139;SDS011;52945;51.908;8.364;2023-07-02T04:52:14;10.27;;;3.90;;
66139;SDS011;52945;51.908;8.364;2023-07-02T04:58:15;10.88;;;3.72;;
66139;SDS011;52945;51.908;8.364;2023-07-02T05:04:17;10.70;;;3.28;;
66139;SDS011;52945;51.908;8.364;2023-07-02T05:10:18;11.02;;;3.88;;
66139;SDS011;52945;51.908;8.364;2023-07-02T05:16:19;11.02;;;4.30;;
66139;SDS011;52945;51.908;8.364;2023-07-02T05:22:20;11.07;;;4.18;;
66139;SDS011;52945;51.908;8.364;2023-07-02T05:28:21;9.82;;;4.25;;
66139;SDS011;52945;51.908;8.364;2023-07-02T05:34:22;10.13;;;4.28;;
66139;SDS011;52945;51.908;8.364;2023-07-02T05:40:23;11.32;;;4.32;;
66139;SDS011;52945;51.908;8.364;2023-07-02T05:46:24;8.75;;;3.88;;
66139;SDS011;52945;51.908;8.364;2023-07-02T05:52:26;11.60;;;4.45;;
66139;SDS011;52945;51.908;8.364;2023-07-02T05:58:27;14.18;;;3.95;;
66139;SDS011;52945;51.908;8.364;2023-07-02T06:01:29;10.35;;;3.88;;
66139;SDS011;52945;51.908;8.364;2023-07-02T06:07:30;14.63;;;4.43;;
66139;SDS011;52945;51.908;8.364;2023-07-02T06:13:32;12.00;;;4.45;;
66139;SDS011;52945;51.908;8.364;2023-07-02T06:16:32;11.27;;;4.28;;
66139;SDS011;52945;51.908;8.364;2023-07-02T06:22:35;8.52;;;3.97;;
66139;SDS011;52945;51.908;8.364;2023-07-02T06:28:36;9.10;;;3.58;;
66139;SDS011;52945;51.908;8.364;2023-07-02T06:31:38;9.43;;;3.63;;
66139;SDS011;52945;51.908;8.364;2023-07-02T06:37:39;12.68;;;3.70;;
66139;SDS011;52945;51.908;8.364;2023-07-02T06:43:41;12.63;;;3.28;;
66139;SDS011;52945;51.908;8.364;2023-07-02T06:46:45;9.88;;;3.75;;
66139;SDS011;52945;51.908;8.364;2023-07-02T06:49:46;13.65;;;3.53;;
66139;SDS011;52945;51.908;8.364;2023-07-02T06:55:47;13.57;;;3.80;;
66139;SDS011;52945;51.908;8.364;2023-07-02T07:01:49;11.98;;;3.28;;
66139;SDS011;52945;51.908;8.364;2023-07-02T07:04:50;13.05;;;4.05;;
66139;SDS011;52945;51.908;8.364;2023-07-02T07:10:51;12.60;;;3.65;;
66139;SDS011;52945;51.908;8.364;2023-07-02T07:16:52;8.77;;;3.60;;
66139;SDS011;52945;51.908;8.364;2023-07-02T07:19:52;11.68;;;3.95;;
66139;SDS011;52945;51.908;8.364;2023-07-02T07:25:54;16.88;;;4.10;;
66139;SDS011;52945;51.908;8.364;2023-07-02T07:31:56;9.40;;;3.55;;
66139;SDS011;52945;51.908;8.364;2023-07-02T07:37:57;10.52;;;3.17;;
66139;SDS011;52945;51.908;8.364;2023-07-02T07:40:57;12.90;;;3.92;;
66139;SDS011;52945;51.908;8.364;2023-07-02T07:46:58;11.63;;;3.80;;
66139;SDS011;52945;51.908;8.364;2023-07-02T07:52:59;13.10;;;4.40;;
66139;SDS011;52945;51.908;8.364;2023-07-02T07:56:00;8.70;;;3.63;;
66139;SDS011;52945;51.908;8.364;2023-07-02T07:59:01;9.73;;;3.97;;
66139;SDS011;52945;51.908;8.364;2023-07-02T08:02:01;11.52;;;3.88;;
66139;SDS011;52945;51.908;8.364;2023-07-02T08:05:02;13.63;;;4.13;;
66139;SDS011;52945;51.908;8.364;2023-07-02T08:08:03;14.63;;;4.90;;
66139;SDS011;52945;51.908;8.364;2023-07-02T08:11:04;10.40;;;4.00;;
66139;SDS011;52945;51.908;8.364;2023-07-02T08:14:05;11.02;;;3.95;;
66139;SDS011;52945;51.908;8.364;2023-07-02T08:17:05;9.85;;;3.60;;
66139;SDS011;52945;51.908;8.364;2023-07-02T08:20:06;13.75;;;4.13;;
66139;SDS011;52945;51.908;8.364;2023-07-02T08:23:09;10.80;;;3.78;;
66139;SDS011;52945;51.908;8.364;2023-07-02T08:26:11;13.85;;;3.80;;
66139;SDS011;52945;51.908;8.364;2023-07-02T08:32:12;11.45;;;3.83;;
66139;SDS011;52945;51.908;8.364;2023-07-02T08:35:13;16.85;;;4.65;;
66139;SDS011;52945;51.908;8.364;2023-07-02T08:38:14;11.82;;;4.18;;
66139;SDS011;52945;51.908;8.364;2023-07-02T08:41:15;12.65;;;3.65;;
66139;SDS011;52945;51.908;8.364;2023-07-02T08:44:20;12.00;;;3.90;;
66139;SDS011;52945;51.908;8.364;2023-07-02T08:47:21;11.98;;;3.67;;
66139;SDS011;52945;51.908;8.364;2023-07-02T08:50:22;15.48;;;4.03;;
66139;SDS011;52945;51.908;8.364;2023-07-02T08:53:23;12.95;;;3.67;;
66139;SDS011;52945;51.908;8.364;2023-07-02T08:56:33;10.93;;;4.20;;
66139;SDS011;52945;51.908;8.364;2023-07-02T08:59:33;14.05;;;4.38;;
66139;SDS011;52945;51.908;8.364;2023-07-02T09:02:36;9.43;;;3.50;;
66139;SDS011;52945;51.908;8.364;2023-07-02T09:05:46;13.35;;;3.75;;
66139;SDS011;52945;51.908;8.364;2023-07-02T09:08:48;12.43;;;4.50;;
66139;SDS011;52945;51.908;8.364;2023-07-02T09:11:49;10.40;;;4.13;;
66139;SDS011;52945;51.908;8.364;2023-07-02T09:14:54;13.93;;;3.42;;
66139;SDS011;52945;51.908;8.364;2023-07-02T09:18:01;11.52;;;3.67;;
66139;SDS011;52945;51.908;8.364;2023-07-02T09:21:02;7.95;;;2.97;;
66139;SDS011;52945;51.908;8.364;2023-07-02T09:24:11;9.98;;;3.67;;
66139;SDS011;52945;51.908;8.364;2023-07-02T09:27:13;9.75;;;4.00;;
66139;SDS011;52945;51.908;8.364;2023-07-02T09:30:14;9.75;;;3.17;;
66139;SDS011;52945;51.908;8.364;2023-07-02T09:33:18;10.52;;;3.05;;
66139;SDS011;52945;51.908;8.364;2023-07-02T09:36:19;14.32;;;3.67;;
66139;SDS011;52945;51.908;8.364;2023-07-02T09:39:20;9.13;;;3.42;;
66139;SDS011;52945;51.908;8.364;2023-07-02T09:42:25;7.78;;;3.40;;
66139;SDS011;52945;51.908;8.364;2023-07-02T09:45:27;11.90;;;3.53;;
66139;SDS011;52945;51.908;8.364;2023-07-02T09:48:28;11.57;;;3.70;;
66139;SDS011;52945;51.908;8.364;2023-07-02T09:51:33;8.88;;;3.50;;
66139;SDS011;52945;51.908;8.364;2023-07-02T09:54:34;10.48;;;3.97;;
66139;SDS011;52945;51.908;8.364;2023-07-02T09:57:36;6.25;;;2.80;;
66139;SDS011;52945;51.908;8.364;2023-07-02T10:00:37;9.32;;;3.15;;
66139;SDS011;52945;51.908;8.364;2023-07-02T10:03:38;10.00;;;3.22;;
66139;SDS011;52945;51.908;8.364;2023-07-02T10:06:48;9.20;;;3.10;;
66139;SDS011;52945;51.908;8.364;2023-07-02T10:09:56;6.13;;;2.95;;
66139;SDS011;52945;51.908;8.364;2023-07-02T10:12:57;8.80;;;3.00;;
66139;SDS011;52945;51.908;8.364;2023-07-02T10:16:04;8.65;;;3.03;;
66139;SDS011;52945;51.908;8.364;2023-07-02T10:19:09;6.30;;;2.67;;
66139;SDS011;52945;51.908;8.364;2023-07-02T10:22:10;8.27;;;3.17;;
66139;SDS011;52945;51.908;8.364;2023-07-02T10:25:11;11.10;;;3.70;;
66139;SDS011;52945;51.908;8.364;2023-07-02T10:28:18;8.75;;;3.80;;
66139;SDS011;52945;51.908;8.364;2023-07-02T10:31:22;7.63;;;2.97;;
66139;SDS011;52945;51.908;8.364;2023-07-02T10:37:37;8.10;;;3.35;;
66139;SDS011;52945;51.908;8.364;2023-07-02T10:40:37;10.02;;;3.35;;
66139;SDS011;52945;51.908;8.364;2023-07-02T10:43:38;9.35;;;3.20;;
66139;SDS011;52945;51.908;8.364;2023-07-02T10:49:46;9.82;;;3.50;;
66139;SDS011;52945;51.908;8.364;2023-07-02T10:52:47;7.80;;;3.08;;
66139;SDS011;52945;51.908;8.364;2023-07-02T10:55:56;10.45;;;3.60;;
66139;SDS011;52945;51.908;8.364;2023-07-02T10:58:57;9.32;;;3.45;;
66139;SDS011;52945;51.908;8.364;2023-07-02T11:01:58;8.68;;;3.75;;
66139;SDS011;52945;51.908;8.364;2023-07-02T11:05:02;8.30;;;3.20;;
66139;SDS011;52945;51.908;8.364;2023-07-02T11:08:07;9.88;;;3.83;;
66139;SDS011;52945;51.908;8.364;2023-07-02T11:11:08;10.75;;;3.85;;
66139;SDS011;52945;51.908;8.364;2023-07-02T11:14:09;10.90;;;3.83;;
66139;SDS011;52945;51.908;8.364;2023-07-02T11:17:09;8.63;;;3.40;;
66139;SDS011;52945;51.908;8.364;2023-07-02T11:20:11;10.35;;;3.63;;
66139;SDS011;52945;51.908;8.364;2023-07-02T11:26:22;7.85;;;3.40;;
66139;SDS011;52945;51.908;8.364;2023-07-02T11:29:23;9.88;;;3.15;;
66139;SDS011;52945;51.908;8.364;2023-07-02T11:32:24;7.80;;;2.80;;
66139;SDS011;52945;51.908;8.364;2023-07-02T11:35:34;11.45;;;3.60;;
66139;SDS011;52945;51.908;8.364;2023-07-02T11:38:35;8.05;;;2.95;;
66139;SDS011;52945;51.908;8.364;2023-07-02T11:41:40;8.15;;;3.78;;
66139;SDS011;52945;51.908;8.364;2023-07-02T11:44:42;9.82;;;3.35;;
66139;SDS011;52945;51.908;8.364;2023-07-02T11:47:43;10.40;;;3.58;;
66139;SDS011;52945;51.908;8.364;2023-07-02T11:50:44;11.27;;;3.00;;
66139;SDS011;52945;51.908;8.364;2023-07-02T11:53:44;10.02;;;3.55;;
66139;SDS011;52945;51.908;8.364;2023-07-02T11:56:45;11.48;;;4.07;;
66139;SDS011;52945;51.908;8.364;2023-07-02T11:59:46;8.95;;;3.50;;
66139;SDS011;52945;51.908;8.364;2023-07-02T12:02:46;10.07;;;3.50;;
66139;SDS011;52945;51.908;8.364;2023-07-02T12:05:48;11.95;;;3.92;;
66139;SDS011;52945;51.908;8.364;2023-07-02T12:08:48;11.07;;;3.70;;
66139;SDS011;52945;51.908;8.364;2023-07-02T12:11:49;10.43;;;3.65;;
66139;SDS011;52945;51.908;8.364;2023-07-02T12:14:49;8.93;;;3.40;;
66139;SDS011;52945;51.908;8.364;2023-07-02T12:17:50;9.80;;;3.38;;
66139;SDS011;52945;51.908;8.364;2023-07-02T12:20:50;6.45;;;3.05;;
66139;SDS011;52945;51.908;8.364;2023-07-02T12:23:51;8.38;;;3.42;;
66139;SDS011;52945;51.908;8.364;2023-07-02T12:26:52;6.57;;;2.70;;
66139;SDS011;52945;51.908;8.364;2023-07-02T12:29:52;11.98;;;3.25;;
66139;SDS011;52945;51.908;8.364;2023-07-02T12:32:53;5.32;;;2.33;;
66139;SDS011;52945;51.908;8.364;2023-07-02T12:35:53;8.23;;;2.70;;
66139;SDS011;52945;51.908;8.364;2023-07-02T12:38:54;10.93;;;2.65;;
66139;SDS011;52945;51.908;8.364;2023-07-02T12:41:54;5.30;;;2.60;;
66139;SDS011;52945;51.908;8.364;2023-07-02T12:44:55;11.05;;;2.90;;
66139;SDS011;52945;51.908;8.364;2023-07-02T12:47:56;8.23;;;2.72;;
66139;SDS011;52945;51.908;8.364;2023-07-02T12:50:57;4.13;;;2.30;;
66139;SDS011;52945;51.908;8.364;2023-07-02T12:53:58;11.18;;;2.78;;
66139;SDS011;52945;51.908;8.364;2023-07-02T12:56:59;10.30;;;3.65;;
66139;SDS011;52945;51.908;8.364;2023-07-02T12:59:59;8.75;;;3.45;;
66139;SDS011;52945;51.908;8.364;2023-07-02T13:03:00;7.07;;;3.08;;
66139;SDS011;52945;51.908;8.364;2023-07-02T13:06:01;11.38;;;3.47;;
66139;SDS011;52945;51.908;8.364;2023-07-02T13:09:01;11.40;;;2.85;;
66139;SDS011;52945;51.908;8.364;2023-07-02T13:12:03;8.82;;;3.08;;
66139;SDS011;52945;51.908;8.364;2023-07-02T13:15:04;7.90;;;3.00;;
66139;SDS011;52945;51.908;8.364;2023-07-02T13:18:05;9.20;;;3.20;;
66139;SDS011;52945;51.908;8.364;2023-07-02T13:21:05;5.40;;;2.72;;
66139;SDS011;52945;51.908;8.364;2023-07-02T13:24:06;7.25;;;2.70;;
66139;SDS011;52945;51.908;8.364;2023-07-02T13:27:08;7.00;;;2.72;;
66139;SDS011;52945;51.908;8.364;2023-07-02T13:30:12;6.35;;;2.90;;
66139;SDS011;52945;51.908;8.364;2023-07-02T13:33:13;5.28;;;2.35;;
66139;SDS011;52945;51.908;8.364;2023-07-02T13:36:13;8.30;;;2.60;;
66139;SDS011;52945;51.908;8.364;2023-07-02T13:39:14;6.82;;;3.03;;
66139;SDS011;52945;51.908;8.364;2023-07-02T13:42:15;7.38;;;3.28;;
66139;SDS011;52945;51.908;8.364;2023-07-02T13:45:16;7.65;;;2.55;;
66139;SDS011;52945;51.908;8.364;2023-07-02T13:48:16;9.70;;;3.20;;
66139;SDS011;52945;51.908;8.364;2023-07-02T13:51:17;5.93;;;2.70;;
66139;SDS011;52945;51.908;8.364;2023-07-02T13:54:17;7.43;;;2.47;;
66139;SDS011;52945;51.908;8.364;2023-07-02T13:57:18;8.57;;;3.33;;
66139;SDS011;52945;51.908;8.364;2023-07-02T14:00:19;7.55;;;2.95;;
66139;SDS011;52945;51.908;8.364;2023-07-02T14:03:19;7.80;;;3.10;;
66139;SDS011;52945;51.908;8.364;2023-07-02T14:06:20;7.38;;;2.92;;
66139;SDS011;52945;51.908;8.364;2023-07-02T14:09:21;5.97;;;2.72;;
66139;SDS011;52945;51.908;8.364;2023-07-02T14:12:22;10.23;;;3.13;;
66139;SDS011;52945;51.908;8.364;2023-07-02T14:15:23;7.40;;;2.95;;
66139;SDS011;52945;51.908;8.364;2023-07-02T14:18:25;9.43;;;4.07;;
66139;SDS011;52945;51.908;8.364;2023-07-02T14:21:25;7.35;;;4.05;;
66139;SDS011;52945;51.908;8.364;2023-07-02T14:24:26;8.82;;;3.78;;
66139;SDS011;52945;51.908;8.364;2023-07-02T14:27:27;10.90;;;4.10;;
66139;SDS011;52945;51.908;8.364;2023-07-02T14:30:27;7.18;;;3.00;;
66139;SDS011;52945;51.908;8.364;2023-07-02T14:33:29;9.55;;;3.30;;
66139;SDS011;52945;51.908;8.364;2023-07-02T14:36:31;9.82;;;3.35;;
66139;SDS011;52945;51.908;8.364;2023-07-02T14:39:32;9.43;;;4.40;;
66139;SDS011;52945;51.908;8.364;2023-07-02T14:42:33;10.75;;;4.32;;
66139;SDS011;52945;51.908;8.364;2023-07-02T14:45:33;9.15;;;3.75;;
66139;SDS011;52945;51.908;8.364;2023-07-02T14:48:34;9.93;;;3.60;;
66139;SDS011;52945;51.908;8.364;2023-07-02T14:51:34;9.27;;;3.72;;
66139;SDS011;52945;51.908;8.364;2023-07-02T14:54:35;8.30;;;3.80;;
66139;SDS011;52945;51.908;8.364;2023-07-02T14:57:36;7.18;;;2.65;;
66139;SDS011;52945;51.908;8.364;2023-07-02T15:00:42;8.35;;;3.40;;
66139;SDS011;52945;51.908;8.364;2023-07-02T15:03:44;9.63;;;3.40;;
66139;SDS011;52945;51.908;8.364;2023-07-02T15:06:45;7.85;;;3.13;;
66139;SDS011;52945;51.908;8.364;2023-07-02T15:09:45;7.05;;;2.85;;
66139;SDS011;52945;51.908;8.364;2023-07-02T15:12:46;4.97;;;2.50;;
66139;SDS011;52945;51.908;8.364;2023-07-02T15:15:48;7.43;;;2.88;;
66139;SDS011;52945;51.908;8.364;2023-07-02T15:18:49;8.95;;;3.10;;
66139;SDS011;52945;51.908;8.364;2023-07-02T15:21:49;10.23;;;4.32;;
66139;SDS011;52945;51.908;8.364;2023-07-02T15:24:50;14.90;;;6.03;;
66139;SDS011;52945;51.908;8.364;2023-07-02T15:27:51;10.98;;;3.13;;
66139;SDS011;52945;51.908;8.364;2023-07-02T15:30:55;8.95;;;3.15;;
66139;SDS011;52945;51.908;8.364;2023-07-02T15:33:58;7.75;;;2.75;;
66139;SDS011;52945;51.908;8.364;2023-07-02T15:36:58;9.35;;;3.15;;
66139;SDS011;52945;51.908;8.364;2023-07-02T15:39:59;7.00;;;3.03;;
66139;SDS011;52945;51.908;8.364;2023-07-02T15:42:59;8.45;;;3.28;;
66139;SDS011;52945;51.908;8.364;2023-07-02T15:46:00;8.98;;;3.00;;
66139;SDS011;52945;51.908;8.364;2023-07-02T15:49:01;9.57;;;3.03;;
66139;SDS011;52945;51.908;8.364;2023-07-02T15:52:02;9.48;;;3.00;;
66139;SDS011;52945;51.908;8.364;2023-07-02T15:55:02;6.25;;;2.63;;
66139;SDS011;52945;51.908;8.364;2023-07-02T15:58:03;9.25;;;3.53;;
66139;SDS011;52945;51.908;8.364;2023-07-02T16:01:13;11.95;;;3.72;;
66139;SDS011;52945;51.908;8.364;2023-07-02T16:04:17;11.00;;;3.40;;
66139;SDS011;52945;51.908;8.364;2023-07-02T16:07:18;9.60;;;3.20;;
66139;SDS011;52945;51.908;8.364;2023-07-02T16:10:18;5.15;;;2.47;;
66139;SDS011;52945;51.908;8.364;2023-07-02T16:13:19;8.20;;;3.22;;
66139;SDS011;52945;51.908;8.364;2023-07-02T16:16:20;10.32;;;3.70;;
66139;SDS011;52945;51.908;8.364;2023-07-02T16:19:21;8.60;;;3.35;;
66139;SDS011;52945;51.908;8.364;2023-07-02T16:22:22;8.77;;;3.45;;
66139;SDS011;52945;51.908;8.364;2023-07-02T16:25:23;11.98;;;3.42;;
66139;SDS011;52945;51.908;8.364;2023-07-02T16:28:23;12.18;;;4.60;;
66139;SDS011;52945;51.908;8.364;2023-07-02T16:31:24;8.50;;;3.90;;
66139;SDS011;52945;51.908;8.364;2023-07-02T16:34:26;7.57;;;4.38;;
66139;SDS011;52945;51.908;8.364;2023-07-02T16:37:29;9.55;;;3.30;;
66139;SDS011;52945;51.908;8.364;2023-07-02T16:40:30;12.15;;;6.65;;
66139;SDS011;52945;51.908;8.364;2023-07-02T16:43:30;6.68;;;3.33;;
66139;SDS011;52945;51.908;8.364;2023-07-02T16:46:31;7.43;;;3.00;;
66139;SDS011;52945;51.908;8.364;2023-07-02T16:49:32;8.23;;;3.65;;
66139;SDS011;52945;51.908;8.364;2023-07-02T16:52:32;7.68;;;3.22;;
66139;SDS011;52945;51.908;8.364;2023-07-02T16:55:36;12.00;;;4.35;;
66139;SDS011;52945;51.908;8.364;2023-07-02T16:58:38;8.02;;;3.45;;
66139;SDS011;52945;51.908;8.364;2023-07-02T17:01:39;6.13;;;3.00;;
66139;SDS011;52945;51.908;8.364;2023-07-02T17:04:40;8.32;;;2.92;;
66139;SDS011;52945;51.908;8.364;2023-07-02T17:07:40;7.90;;;2.95;;
66139;SDS011;52945;51.908;8.364;2023-07-02T17:10:41;7.65;;;3.40;;
66139;SDS011;52945;51.908;8.364;2023-07-02T17:13:41;9.43;;;3.00;;
66139;SDS011;52945;51.908;8.364;2023-07-02T17:16:42;5.75;;;2.47;;
66139;SDS011;52945;51.908;8.364;2023-07-02T17:19:44;8.52;;;3.42;;
66139;SDS011;52945;51.908;8.364;2023-07-02T17:22:46;10.15;;;2.88;;
66139;SDS011;52945;51.908;8.364;2023-07-02T17:25:46;8.88;;;2.70;;
66139;SDS011;52945;51.908;8.364;2023-07-02T17:28:47;6.63;;;2.63;;
66139;SDS011;52945;51.908;8.364;2023-07-02T17:31:49;10.10;;;2.53;;
66139;SDS011;52945;51.908;8.364;2023-07-02T17:34:54;11.63;;;3.13;;
66139;SDS011;52945;51.908;8.364;2023-07-02T17:37:55;5.10;;;2.72;;
66139;SDS011;52945;51.908;8.364;2023-07-02T17:40:55;8.95;;;3.20;;
66139;SDS011;52945;51.908;8.364;2023-07-02T17:43:56;6.10;;;2.50;;
66139;SDS011;52945;51.908;8.364;2023-07-02T17:46:58;6.88;;;2.88;;
66139;SDS011;52945;51.908;8.364;2023-07-02T17:50:00;6.70;;;2.58;;
66139;SDS011;52945;51.908;8.364;2023-07-02T17:53:01;6.97;;;2.55;;
66139;SDS011;52945;51.908;8.364;2023-07-02T17:56:01;7.68;;;2.30;;
66139;SDS011;52945;51.908;8.364;2023-07-02T17:59:02;6.72;;;2.65;;
66139;SDS011;52945;51.908;8.364;2023-07-02T18:02:03;5.03;;;2.63;;
66139;SDS011;52945;51.908;8.364;2023-07-02T18:05:05;6.72;;;2.53;;
66139;SDS011;52945;51.908;8.364;2023-07-02T18:08:06;5.50;;;2.50;;
66139;SDS011;52945;51.908;8.364;2023-07-02T18:11:06;5.65;;;2.15;;
66139;SDS011;52945;51.908;8.364;2023-07-02T18:14:09;6.00;;;2.30;;
66139;SDS011;52945;51.908;8.364;2023-07-02T18:17:10;5.55;;;2.45;;
66139;SDS011;52945;51.908;8.364;2023-07-02T18:20:11;5.65;;;2.28;;
66139;SDS011;52945;51.908;8.364;2023-07-02T18:23:15;5.18;;;2.50;;
66139;SDS011;52945;51.908;8.364;2023-07-02T18:26:16;6.85;;;2.15;;
66139;SDS011;52945;51.908;8.364;2023-07-02T18:29:17;6.35;;;2.13;;
66139;SDS011;52945;51.908;8.364;2023-07-02T18:32:18;5.30;;;2.20;;
66139;SDS011;52945;51.908;8.364;2023-07-02T18:35:18;6.53;;;2.20;;
66139;SDS011;52945;51.908;8.364;2023-07-02T18:38:19;5.88;;;2.13;;
66139;SDS011;52945;51.908;8.364;2023-07-02T18:41:20;4.85;;;1.98;;
66139;SDS011;52945;51.908;8.364;2023-07-02T18:44:20;3.60;;;1.83;;
66139;SDS011;52945;51.908;8.364;2023-07-02T18:47:21;6.70;;;1.95;;
66139;SDS011;52945;51.908;8.364;2023-07-02T18:50:22;6.95;;;2.25;;
66139;SDS011;52945;51.908;8.364;2023-07-02T18:53:23;7.53;;;2.50;;
66139;SDS011;52945;51.908;8.364;2023-07-02T18:56:24;7.97;;;2.05;;
66139;SDS011;52945;51.908;8.364;2023-07-02T18:59:25;5.30;;;2.10;;
66139;SDS011;52945;51.908;8.364;2023-07-02T19:02:27;5.47;;;2.20;;
66139;SDS011;52945;51.908;8.364;2023-07-02T19:05:29;5.20;;;2.05;;
66139;SDS011;52945;51.908;8.364;2023-07-02T19:08:29;6.35;;;2.30;;
66139;SDS011;52945;51.908;8.364;2023-07-02T19:11:30;6.05;;;2.22;;
66139;SDS011;52945;51.908;8.364;2023-07-02T19:14:30;6.03;;;2.40;;
66139;SDS011;52945;51.908;8.364;2023-07-02T19:17:35;3.30;;;1.92;;
66139;SDS011;52945;51.908;8.364;2023-07-02T19:20:36;4.30;;;2.17;;
66139;SDS011;52945;51.908;8.364;2023-07-02T19:23:36;6.03;;;2.55;;
66139;SDS011;52945;51.908;8.364;2023-07-02T19:26:37;5.85;;;2.15;;
66139;SDS011;52945;51.908;8.364;2023-07-02T19:29:37;5.85;;;2.33;;
66139;SDS011;52945;51.908;8.364;2023-07-02T19:32:38;4.63;;;1.95;;
66139;SDS011;52945;51.908;8.364;2023-07-02T19:35:39;6.32;;;2.17;;
66139;SDS011;52945;51.908;8.364;2023-07-02T19:38:39;4.97;;;2.10;;
66139;SDS011;52945;51.908;8.364;2023-07-02T19:41:40;4.97;;;2.20;;
66139;SDS011;52945;51.908;8.364;2023-07-02T19:44:41;5.07;;;1.88;;
66139;SDS011;52945;51.908;8.364;2023-07-02T19:47:42;5.05;;;2.15;;
66139;SDS011;52945;51.908;8.364;2023-07-02T19:50:43;5.50;;;2.30;;
66139;SDS011;52945;51.908;8.364;2023-07-02T19:53:44;4.45;;;2.00;;
66139;SDS011;52945;51.908;8.364;2023-07-02T19:56:45;4.50;;;2.08;;
66139;SDS011;52945;51.908;8.364;2023-07-02T19:59:48;5.72;;;2.13;;
66139;SDS011;52945;51.908;8.364;2023-07-02T20:02:49;6.97;;;2.42;;
66139;SDS011;52945;51.908;8.364;2023-07-02T20:05:50;7.05;;;2.53;;
66139;SDS011;52945;51.908;8.364;2023-07-02T20:08:51;6.90;;;2.83;;
66139;SDS011;52945;51.908;8.364;2023-07-02T20:11:51;5.78;;;2.67;;
66139;SDS011;52945;51.908;8.364;2023-07-02T20:14:52;5.25;;;2.10;;
66139;SDS011;52945;51.908;8.364;2023-07-02T20:17:52;4.20;;;2.38;;
66139;SDS011;52945;51.908;8.364;2023-07-02T20:20:53;7.60;;;2.33;;
66139;SDS011;52945;51.908;8.364;2023-07-02T20:23:57;6.18;;;2.45;;
66139;SDS011;52945;51.908;8.364;2023-07-02T20:26:57;5.65;;;2.38;;
66139;SDS011;52945;51.908;8.364;2023-07-02T20:29:58;4.70;;;2.10;;
66139;SDS011;52945;51.908;8.364;2023-07-02T20:32:58;8.18;;;2.50;;
66139;SDS011;52945;51.908;8.364;2023-07-02T20:35:59;6.65;;;2.58;;
66139;SDS011;52945;51.908;8.364;2023-07-02T20:39:00;5.57;;;2.33;;
66139;SDS011;52945;51.908;8.364;2023-07-02T20:42:00;6.18;;;2.42;;
66139;SDS011;52945;51.908;8.364;2023-07-02T20:45:01;8.52;;;2.50;;
66139;SDS011;52945;51.908;8.364;2023-07-02T20:48:04;5.97;;;2.70;;
66139;SDS011;52945;51.908;8.364;2023-07-02T20:51:05;7.30;;;2.75;;
66139;SDS011;52945;51.908;8.364;2023-07-02T20:54:05;9.32;;;3.10;;
66139;SDS011;52945;51.908;8.364;2023-07-02T20:57:06;7.00;;;2.53;;
66139;SDS011;52945;51.908;8.364;2023-07-02T21:00:07;7.13;;;3.20;;
66139;SDS011;52945;51.908;8.364;2023-07-02T21:03:11;9.57;;;3.55;;
66139;SDS011;52945;51.908;8.364;2023-07-02T21:06:11;10.00;;;3.53;;
66139;SDS011;52945;51.908;8.364;2023-07-02T21:09:12;10.65;;;3.78;;
66139;SDS011;52945;51.908;8.364;2023-07-02T21:12:14;10.95;;;4.15;;
66139;SDS011;52945;51.908;8.364;2023-07-02T21:15:15;10.48;;;3.83;;